<?xml version="1.0" encoding="UTF-8" standalone="no" ?>
<gpx xmlns="http://www.topografix.com/GPX/1/1" xmlns:xsi="http://www.w3.org/2001/XMLSchema-instance" xsi:schemaLocation="http://www.topografix.com/GPX/1/1 http://www.topografix.com/GPX/1/1/gpx.xsd" version="1.1" creator="VisuGPX - https://www.visugpx.com">
  <metadata>
    <name>Sortie du 18/03/17</name>
    <desc><![CDATA[Sortie du 18/03/17 avec runny et nomie]]></desc>
  </metadata>
  <trk>
    <name><![CDATA[18-MARS-17 10:30:22 AM]]></name>
    <trkseg>
      <trkpt lat="44.2215" lon="4.35368">
        <ele>261.62</ele>
        <time>2017-03-18T08:06:31Z</time>
      </trkpt>
      <trkpt lat="44.22149" lon="4.35369">
        <ele>265.94</ele>
        <time>2017-03-18T08:06:34Z</time>
      </trkpt>
      <trkpt lat="44.22148" lon="4.35371">
        <ele>269.79</ele>
        <time>2017-03-18T08:06:37Z</time>
      </trkpt>
      <trkpt lat="44.22148" lon="4.35372">
        <ele>273.63</ele>
        <time>2017-03-18T08:06:40Z</time>
      </trkpt>
      <trkpt lat="44.22149" lon="4.35373">
        <ele>276.52</ele>
        <time>2017-03-18T08:06:43Z</time>
      </trkpt>
      <trkpt lat="44.22149" lon="4.35374">
        <ele>280.84</ele>
        <time>2017-03-18T08:06:46Z</time>
      </trkpt>
      <trkpt lat="44.22149" lon="4.35376">
        <ele>284.69</ele>
        <time>2017-03-18T08:06:50Z</time>
      </trkpt>
      <trkpt lat="44.22149" lon="4.35376">
        <ele>285.17</ele>
        <time>2017-03-18T08:06:51Z</time>
      </trkpt>
      <trkpt lat="44.22149" lon="4.35376">
        <ele>286.13</ele>
        <time>2017-03-18T08:06:53Z</time>
      </trkpt>
      <trkpt lat="44.2215" lon="4.35377">
        <ele>289.49</ele>
        <time>2017-03-18T08:06:57Z</time>
      </trkpt>
      <trkpt lat="44.2215" lon="4.35377">
        <ele>291.42</ele>
        <time>2017-03-18T08:07:01Z</time>
      </trkpt>
      <trkpt lat="44.2215" lon="4.35376">
        <ele>294.78</ele>
        <time>2017-03-18T08:07:08Z</time>
      </trkpt>
      <trkpt lat="44.22148" lon="4.35375">
        <ele>298.63</ele>
        <time>2017-03-18T08:07:18Z</time>
      </trkpt>
      <trkpt lat="44.22148" lon="4.35374">
        <ele>301.51</ele>
        <time>2017-03-18T08:07:37Z</time>
      </trkpt>
      <trkpt lat="44.22147" lon="4.35379">
        <ele>304.39</ele>
        <time>2017-03-18T08:08:03Z</time>
      </trkpt>
      <trkpt lat="44.22147" lon="4.3538">
        <ele>304.88</ele>
        <time>2017-03-18T08:08:15Z</time>
      </trkpt>
      <trkpt lat="44.2215" lon="4.35407">
        <ele>304.39</ele>
        <time>2017-03-18T08:08:27Z</time>
      </trkpt>
      <trkpt lat="44.2215" lon="4.35411">
        <ele>304.39</ele>
        <time>2017-03-18T08:08:29Z</time>
      </trkpt>
      <trkpt lat="44.22161" lon="4.3545">
        <ele>302.95</ele>
        <time>2017-03-18T08:08:40Z</time>
      </trkpt>
      <trkpt lat="44.22187" lon="4.35485">
        <ele>302.47</ele>
        <time>2017-03-18T08:08:51Z</time>
      </trkpt>
      <trkpt lat="44.22195" lon="4.3549">
        <ele>302.47</ele>
        <time>2017-03-18T08:08:55Z</time>
      </trkpt>
      <trkpt lat="44.2221" lon="4.35479">
        <ele>301.99</ele>
        <time>2017-03-18T08:09:07Z</time>
      </trkpt>
      <trkpt lat="44.22218" lon="4.35478">
        <ele>301.51</ele>
        <time>2017-03-18T08:09:17Z</time>
      </trkpt>
      <trkpt lat="44.22226" lon="4.35476">
        <ele>300.07</ele>
        <time>2017-03-18T08:09:28Z</time>
      </trkpt>
      <trkpt lat="44.22232" lon="4.35471">
        <ele>299.59</ele>
        <time>2017-03-18T08:09:38Z</time>
      </trkpt>
      <trkpt lat="44.22258" lon="4.35462">
        <ele>301.03</ele>
        <time>2017-03-18T08:09:49Z</time>
      </trkpt>
      <trkpt lat="44.22282" lon="4.35479">
        <ele>302.47</ele>
        <time>2017-03-18T08:10:01Z</time>
      </trkpt>
      <trkpt lat="44.22294" lon="4.35491">
        <ele>302.47</ele>
        <time>2017-03-18T08:10:07Z</time>
      </trkpt>
      <trkpt lat="44.22323" lon="4.35523">
        <ele>302.47</ele>
        <time>2017-03-18T08:10:20Z</time>
      </trkpt>
      <trkpt lat="44.22339" lon="4.35575">
        <ele>302.95</ele>
        <time>2017-03-18T08:10:33Z</time>
      </trkpt>
      <trkpt lat="44.22367" lon="4.3558">
        <ele>302.95</ele>
        <time>2017-03-18T08:10:42Z</time>
      </trkpt>
      <trkpt lat="44.22404" lon="4.35592">
        <ele>301.99</ele>
        <time>2017-03-18T08:10:53Z</time>
      </trkpt>
      <trkpt lat="44.22426" lon="4.356">
        <ele>302.47</ele>
        <time>2017-03-18T08:11:00Z</time>
      </trkpt>
      <trkpt lat="44.22433" lon="4.35619">
        <ele>302.47</ele>
        <time>2017-03-18T08:11:05Z</time>
      </trkpt>
      <trkpt lat="44.22432" lon="4.35665">
        <ele>301.03</ele>
        <time>2017-03-18T08:11:14Z</time>
      </trkpt>
      <trkpt lat="44.22452" lon="4.35722">
        <ele>299.59</ele>
        <time>2017-03-18T08:11:26Z</time>
      </trkpt>
      <trkpt lat="44.22478" lon="4.35778">
        <ele>298.63</ele>
        <time>2017-03-18T08:11:37Z</time>
      </trkpt>
      <trkpt lat="44.2248" lon="4.35784">
        <ele>298.15</ele>
        <time>2017-03-18T08:11:38Z</time>
      </trkpt>
      <trkpt lat="44.22484" lon="4.35871">
        <ele>298.63</ele>
        <time>2017-03-18T08:11:52Z</time>
      </trkpt>
      <trkpt lat="44.22485" lon="4.35942">
        <ele>299.11</ele>
        <time>2017-03-18T08:12:05Z</time>
      </trkpt>
      <trkpt lat="44.22493" lon="4.36004">
        <ele>300.55</ele>
        <time>2017-03-18T08:12:18Z</time>
      </trkpt>
      <trkpt lat="44.22502" lon="4.36077">
        <ele>300.55</ele>
        <time>2017-03-18T08:12:32Z</time>
      </trkpt>
      <trkpt lat="44.22509" lon="4.36129">
        <ele>300.55</ele>
        <time>2017-03-18T08:12:42Z</time>
      </trkpt>
      <trkpt lat="44.22511" lon="4.36179">
        <ele>301.03</ele>
        <time>2017-03-18T08:12:52Z</time>
      </trkpt>
      <trkpt lat="44.22506" lon="4.36213">
        <ele>301.03</ele>
        <time>2017-03-18T08:13:00Z</time>
      </trkpt>
      <trkpt lat="44.22497" lon="4.36267">
        <ele>302.47</ele>
        <time>2017-03-18T08:13:10Z</time>
      </trkpt>
      <trkpt lat="44.22482" lon="4.36314">
        <ele>303.43</ele>
        <time>2017-03-18T08:13:21Z</time>
      </trkpt>
      <trkpt lat="44.22471" lon="4.36352">
        <ele>303.43</ele>
        <time>2017-03-18T08:13:31Z</time>
      </trkpt>
      <trkpt lat="44.22456" lon="4.3639">
        <ele>302.47</ele>
        <time>2017-03-18T08:13:39Z</time>
      </trkpt>
      <trkpt lat="44.22453" lon="4.36395">
        <ele>302.47</ele>
        <time>2017-03-18T08:13:40Z</time>
      </trkpt>
      <trkpt lat="44.22426" lon="4.36436">
        <ele>301.03</ele>
        <time>2017-03-18T08:13:48Z</time>
      </trkpt>
      <trkpt lat="44.22411" lon="4.36463">
        <ele>300.55</ele>
        <time>2017-03-18T08:13:54Z</time>
      </trkpt>
      <trkpt lat="44.2241" lon="4.36468">
        <ele>300.07</ele>
        <time>2017-03-18T08:13:55Z</time>
      </trkpt>
      <trkpt lat="44.22408" lon="4.36473">
        <ele>300.07</ele>
        <time>2017-03-18T08:13:56Z</time>
      </trkpt>
      <trkpt lat="44.22406" lon="4.36479">
        <ele>300.07</ele>
        <time>2017-03-18T08:13:57Z</time>
      </trkpt>
      <trkpt lat="44.22404" lon="4.36483">
        <ele>300.07</ele>
        <time>2017-03-18T08:13:58Z</time>
      </trkpt>
      <trkpt lat="44.22377" lon="4.36539">
        <ele>298.15</ele>
        <time>2017-03-18T08:14:11Z</time>
      </trkpt>
      <trkpt lat="44.22374" lon="4.36545">
        <ele>298.15</ele>
        <time>2017-03-18T08:14:12Z</time>
      </trkpt>
      <trkpt lat="44.22343" lon="4.36612">
        <ele>297.67</ele>
        <time>2017-03-18T08:14:24Z</time>
      </trkpt>
      <trkpt lat="44.2234" lon="4.36617">
        <ele>297.18</ele>
        <time>2017-03-18T08:14:25Z</time>
      </trkpt>
      <trkpt lat="44.22338" lon="4.36621">
        <ele>297.18</ele>
        <time>2017-03-18T08:14:26Z</time>
      </trkpt>
      <trkpt lat="44.22335" lon="4.36625">
        <ele>297.18</ele>
        <time>2017-03-18T08:14:27Z</time>
      </trkpt>
      <trkpt lat="44.22332" lon="4.3663">
        <ele>296.7</ele>
        <time>2017-03-18T08:14:28Z</time>
      </trkpt>
      <trkpt lat="44.22288" lon="4.36705">
        <ele>296.22</ele>
        <time>2017-03-18T08:14:43Z</time>
      </trkpt>
      <trkpt lat="44.22286" lon="4.3671">
        <ele>296.22</ele>
        <time>2017-03-18T08:14:44Z</time>
      </trkpt>
      <trkpt lat="44.22281" lon="4.3672">
        <ele>296.22</ele>
        <time>2017-03-18T08:14:46Z</time>
      </trkpt>
      <trkpt lat="44.22268" lon="4.36752">
        <ele>295.74</ele>
        <time>2017-03-18T08:14:53Z</time>
      </trkpt>
      <trkpt lat="44.22265" lon="4.36758">
        <ele>295.74</ele>
        <time>2017-03-18T08:14:54Z</time>
      </trkpt>
      <trkpt lat="44.22263" lon="4.36764">
        <ele>295.74</ele>
        <time>2017-03-18T08:14:55Z</time>
      </trkpt>
      <trkpt lat="44.22261" lon="4.3677">
        <ele>295.74</ele>
        <time>2017-03-18T08:14:56Z</time>
      </trkpt>
      <trkpt lat="44.2226" lon="4.36776">
        <ele>295.74</ele>
        <time>2017-03-18T08:14:57Z</time>
      </trkpt>
      <trkpt lat="44.22259" lon="4.36782">
        <ele>295.26</ele>
        <time>2017-03-18T08:14:58Z</time>
      </trkpt>
      <trkpt lat="44.22258" lon="4.36788">
        <ele>295.26</ele>
        <time>2017-03-18T08:14:59Z</time>
      </trkpt>
      <trkpt lat="44.22257" lon="4.36793">
        <ele>295.26</ele>
        <time>2017-03-18T08:15:00Z</time>
      </trkpt>
      <trkpt lat="44.22256" lon="4.36799">
        <ele>295.26</ele>
        <time>2017-03-18T08:15:01Z</time>
      </trkpt>
      <trkpt lat="44.22255" lon="4.3681">
        <ele>295.26</ele>
        <time>2017-03-18T08:15:03Z</time>
      </trkpt>
      <trkpt lat="44.22256" lon="4.36815">
        <ele>295.26</ele>
        <time>2017-03-18T08:15:04Z</time>
      </trkpt>
      <trkpt lat="44.22255" lon="4.3682">
        <ele>295.26</ele>
        <time>2017-03-18T08:15:05Z</time>
      </trkpt>
      <trkpt lat="44.22254" lon="4.36825">
        <ele>295.26</ele>
        <time>2017-03-18T08:15:06Z</time>
      </trkpt>
      <trkpt lat="44.22253" lon="4.36829">
        <ele>295.26</ele>
        <time>2017-03-18T08:15:07Z</time>
      </trkpt>
      <trkpt lat="44.22254" lon="4.36834">
        <ele>295.26</ele>
        <time>2017-03-18T08:15:08Z</time>
      </trkpt>
      <trkpt lat="44.22255" lon="4.36838">
        <ele>295.26</ele>
        <time>2017-03-18T08:15:09Z</time>
      </trkpt>
      <trkpt lat="44.22242" lon="4.36901">
        <ele>294.78</ele>
        <time>2017-03-18T08:15:21Z</time>
      </trkpt>
      <trkpt lat="44.22239" lon="4.36906">
        <ele>294.78</ele>
        <time>2017-03-18T08:15:22Z</time>
      </trkpt>
      <trkpt lat="44.22236" lon="4.3691">
        <ele>294.3</ele>
        <time>2017-03-18T08:15:23Z</time>
      </trkpt>
      <trkpt lat="44.22233" lon="4.36914">
        <ele>294.78</ele>
        <time>2017-03-18T08:15:24Z</time>
      </trkpt>
      <trkpt lat="44.22205" lon="4.36948">
        <ele>294.3</ele>
        <time>2017-03-18T08:15:32Z</time>
      </trkpt>
      <trkpt lat="44.22159" lon="4.37015">
        <ele>294.78</ele>
        <time>2017-03-18T08:15:47Z</time>
      </trkpt>
      <trkpt lat="44.22116" lon="4.37066">
        <ele>295.74</ele>
        <time>2017-03-18T08:16:01Z</time>
      </trkpt>
      <trkpt lat="44.22102" lon="4.37092">
        <ele>294.78</ele>
        <time>2017-03-18T08:16:07Z</time>
      </trkpt>
      <trkpt lat="44.221" lon="4.37097">
        <ele>295.26</ele>
        <time>2017-03-18T08:16:08Z</time>
      </trkpt>
      <trkpt lat="44.22098" lon="4.37103">
        <ele>294.78</ele>
        <time>2017-03-18T08:16:09Z</time>
      </trkpt>
      <trkpt lat="44.22084" lon="4.37135">
        <ele>294.78</ele>
        <time>2017-03-18T08:16:15Z</time>
      </trkpt>
      <trkpt lat="44.22082" lon="4.3714">
        <ele>295.26</ele>
        <time>2017-03-18T08:16:16Z</time>
      </trkpt>
      <trkpt lat="44.2208" lon="4.37144">
        <ele>295.26</ele>
        <time>2017-03-18T08:16:17Z</time>
      </trkpt>
      <trkpt lat="44.2205" lon="4.37213">
        <ele>295.26</ele>
        <time>2017-03-18T08:16:31Z</time>
      </trkpt>
      <trkpt lat="44.22047" lon="4.37224">
        <ele>295.26</ele>
        <time>2017-03-18T08:16:33Z</time>
      </trkpt>
      <trkpt lat="44.22046" lon="4.3723">
        <ele>295.74</ele>
        <time>2017-03-18T08:16:34Z</time>
      </trkpt>
      <trkpt lat="44.22035" lon="4.37292">
        <ele>296.22</ele>
        <time>2017-03-18T08:16:45Z</time>
      </trkpt>
      <trkpt lat="44.22033" lon="4.37355">
        <ele>296.7</ele>
        <time>2017-03-18T08:16:58Z</time>
      </trkpt>
      <trkpt lat="44.22029" lon="4.37413">
        <ele>296.7</ele>
        <time>2017-03-18T08:17:11Z</time>
      </trkpt>
      <trkpt lat="44.22019" lon="4.37457">
        <ele>294.78</ele>
        <time>2017-03-18T08:17:21Z</time>
      </trkpt>
      <trkpt lat="44.21999" lon="4.37509">
        <ele>294.78</ele>
        <time>2017-03-18T08:17:31Z</time>
      </trkpt>
      <trkpt lat="44.21998" lon="4.37514">
        <ele>294.78</ele>
        <time>2017-03-18T08:17:32Z</time>
      </trkpt>
      <trkpt lat="44.21981" lon="4.37568">
        <ele>294.78</ele>
        <time>2017-03-18T08:17:44Z</time>
      </trkpt>
      <trkpt lat="44.21973" lon="4.37599">
        <ele>294.78</ele>
        <time>2017-03-18T08:17:52Z</time>
      </trkpt>
      <trkpt lat="44.21964" lon="4.3764">
        <ele>295.74</ele>
        <time>2017-03-18T08:18:02Z</time>
      </trkpt>
      <trkpt lat="44.21958" lon="4.37673">
        <ele>296.7</ele>
        <time>2017-03-18T08:18:11Z</time>
      </trkpt>
      <trkpt lat="44.21956" lon="4.37691">
        <ele>297.18</ele>
        <time>2017-03-18T08:18:16Z</time>
      </trkpt>
      <trkpt lat="44.21955" lon="4.37694">
        <ele>297.67</ele>
        <time>2017-03-18T08:18:17Z</time>
      </trkpt>
      <trkpt lat="44.21953" lon="4.37698">
        <ele>298.15</ele>
        <time>2017-03-18T08:18:18Z</time>
      </trkpt>
      <trkpt lat="44.21952" lon="4.37701">
        <ele>297.67</ele>
        <time>2017-03-18T08:18:19Z</time>
      </trkpt>
      <trkpt lat="44.21951" lon="4.37704">
        <ele>297.67</ele>
        <time>2017-03-18T08:18:20Z</time>
      </trkpt>
      <trkpt lat="44.21951" lon="4.37707">
        <ele>297.67</ele>
        <time>2017-03-18T08:18:21Z</time>
      </trkpt>
      <trkpt lat="44.2195" lon="4.3771">
        <ele>297.67</ele>
        <time>2017-03-18T08:18:22Z</time>
      </trkpt>
      <trkpt lat="44.21941" lon="4.37748">
        <ele>299.11</ele>
        <time>2017-03-18T08:18:32Z</time>
      </trkpt>
      <trkpt lat="44.21933" lon="4.37769">
        <ele>299.59</ele>
        <time>2017-03-18T08:18:40Z</time>
      </trkpt>
      <trkpt lat="44.21927" lon="4.37779">
        <ele>300.55</ele>
        <time>2017-03-18T08:18:50Z</time>
      </trkpt>
      <trkpt lat="44.21906" lon="4.37812">
        <ele>301.03</ele>
        <time>2017-03-18T08:19:01Z</time>
      </trkpt>
      <trkpt lat="44.21906" lon="4.37812">
        <ele>301.03</ele>
        <time>2017-03-18T08:19:06Z</time>
      </trkpt>
      <trkpt lat="44.21904" lon="4.37817">
        <ele>301.03</ele>
        <time>2017-03-18T08:19:09Z</time>
      </trkpt>
      <trkpt lat="44.21902" lon="4.3782">
        <ele>301.03</ele>
        <time>2017-03-18T08:19:10Z</time>
      </trkpt>
      <trkpt lat="44.21901" lon="4.37823">
        <ele>301.51</ele>
        <time>2017-03-18T08:19:11Z</time>
      </trkpt>
      <trkpt lat="44.219" lon="4.37825">
        <ele>301.51</ele>
        <time>2017-03-18T08:19:12Z</time>
      </trkpt>
      <trkpt lat="44.21899" lon="4.37828">
        <ele>301.51</ele>
        <time>2017-03-18T08:19:13Z</time>
      </trkpt>
      <trkpt lat="44.21897" lon="4.37835">
        <ele>301.99</ele>
        <time>2017-03-18T08:19:17Z</time>
      </trkpt>
      <trkpt lat="44.21895" lon="4.37837">
        <ele>301.99</ele>
        <time>2017-03-18T08:19:18Z</time>
      </trkpt>
      <trkpt lat="44.21873" lon="4.37866">
        <ele>302.95</ele>
        <time>2017-03-18T08:19:30Z</time>
      </trkpt>
      <trkpt lat="44.21871" lon="4.37867">
        <ele>302.95</ele>
        <time>2017-03-18T08:19:31Z</time>
      </trkpt>
      <trkpt lat="44.2187" lon="4.37869">
        <ele>302.95</ele>
        <time>2017-03-18T08:19:32Z</time>
      </trkpt>
      <trkpt lat="44.21869" lon="4.3787">
        <ele>302.95</ele>
        <time>2017-03-18T08:19:33Z</time>
      </trkpt>
      <trkpt lat="44.21868" lon="4.37871">
        <ele>302.95</ele>
        <time>2017-03-18T08:19:34Z</time>
      </trkpt>
      <trkpt lat="44.21867" lon="4.37872">
        <ele>302.95</ele>
        <time>2017-03-18T08:19:35Z</time>
      </trkpt>
      <trkpt lat="44.21864" lon="4.37876">
        <ele>303.43</ele>
        <time>2017-03-18T08:19:38Z</time>
      </trkpt>
      <trkpt lat="44.21863" lon="4.37877">
        <ele>302.95</ele>
        <time>2017-03-18T08:19:39Z</time>
      </trkpt>
      <trkpt lat="44.21861" lon="4.37879">
        <ele>303.43</ele>
        <time>2017-03-18T08:19:40Z</time>
      </trkpt>
      <trkpt lat="44.2186" lon="4.37882">
        <ele>303.43</ele>
        <time>2017-03-18T08:19:41Z</time>
      </trkpt>
      <trkpt lat="44.21858" lon="4.37885">
        <ele>303.91</ele>
        <time>2017-03-18T08:19:42Z</time>
      </trkpt>
      <trkpt lat="44.21856" lon="4.37888">
        <ele>303.43</ele>
        <time>2017-03-18T08:19:43Z</time>
      </trkpt>
      <trkpt lat="44.21855" lon="4.3789">
        <ele>303.91</ele>
        <time>2017-03-18T08:19:44Z</time>
      </trkpt>
      <trkpt lat="44.21854" lon="4.37892">
        <ele>303.91</ele>
        <time>2017-03-18T08:19:45Z</time>
      </trkpt>
      <trkpt lat="44.21854" lon="4.37893">
        <ele>303.91</ele>
        <time>2017-03-18T08:19:46Z</time>
      </trkpt>
      <trkpt lat="44.21853" lon="4.37894">
        <ele>303.91</ele>
        <time>2017-03-18T08:19:47Z</time>
      </trkpt>
      <trkpt lat="44.21852" lon="4.37897">
        <ele>303.91</ele>
        <time>2017-03-18T08:19:48Z</time>
      </trkpt>
      <trkpt lat="44.2185" lon="4.37899">
        <ele>304.39</ele>
        <time>2017-03-18T08:19:49Z</time>
      </trkpt>
      <trkpt lat="44.21849" lon="4.37901">
        <ele>303.91</ele>
        <time>2017-03-18T08:19:50Z</time>
      </trkpt>
      <trkpt lat="44.21841" lon="4.37914">
        <ele>304.88</ele>
        <time>2017-03-18T08:19:58Z</time>
      </trkpt>
      <trkpt lat="44.21835" lon="4.37923">
        <ele>305.36</ele>
        <time>2017-03-18T08:20:06Z</time>
      </trkpt>
      <trkpt lat="44.21829" lon="4.37932">
        <ele>305.84</ele>
        <time>2017-03-18T08:20:14Z</time>
      </trkpt>
      <trkpt lat="44.21828" lon="4.37933">
        <ele>305.84</ele>
        <time>2017-03-18T08:20:15Z</time>
      </trkpt>
      <trkpt lat="44.21826" lon="4.37938">
        <ele>306.32</ele>
        <time>2017-03-18T08:20:16Z</time>
      </trkpt>
      <trkpt lat="44.21824" lon="4.37945">
        <ele>306.32</ele>
        <time>2017-03-18T08:20:20Z</time>
      </trkpt>
      <trkpt lat="44.21823" lon="4.37948">
        <ele>306.32</ele>
        <time>2017-03-18T08:20:21Z</time>
      </trkpt>
      <trkpt lat="44.21821" lon="4.37951">
        <ele>306.32</ele>
        <time>2017-03-18T08:20:22Z</time>
      </trkpt>
      <trkpt lat="44.2182" lon="4.37954">
        <ele>306.8</ele>
        <time>2017-03-18T08:20:24Z</time>
      </trkpt>
      <trkpt lat="44.21821" lon="4.37952">
        <ele>306.8</ele>
        <time>2017-03-18T08:20:25Z</time>
      </trkpt>
      <trkpt lat="44.21822" lon="4.37952">
        <ele>306.8</ele>
        <time>2017-03-18T08:20:26Z</time>
      </trkpt>
      <trkpt lat="44.2182" lon="4.37955">
        <ele>307.28</ele>
        <time>2017-03-18T08:20:28Z</time>
      </trkpt>
      <trkpt lat="44.21819" lon="4.37957">
        <ele>307.28</ele>
        <time>2017-03-18T08:20:29Z</time>
      </trkpt>
      <trkpt lat="44.21813" lon="4.37969">
        <ele>307.28</ele>
        <time>2017-03-18T08:20:35Z</time>
      </trkpt>
      <trkpt lat="44.21802" lon="4.37994">
        <ele>308.24</ele>
        <time>2017-03-18T08:20:44Z</time>
      </trkpt>
      <trkpt lat="44.21802" lon="4.37996">
        <ele>307.76</ele>
        <time>2017-03-18T08:20:45Z</time>
      </trkpt>
      <trkpt lat="44.21801" lon="4.37999">
        <ele>308.24</ele>
        <time>2017-03-18T08:20:46Z</time>
      </trkpt>
      <trkpt lat="44.21796" lon="4.38017">
        <ele>308.24</ele>
        <time>2017-03-18T08:20:52Z</time>
      </trkpt>
      <trkpt lat="44.21795" lon="4.3802">
        <ele>308.24</ele>
        <time>2017-03-18T08:20:53Z</time>
      </trkpt>
      <trkpt lat="44.21795" lon="4.38023">
        <ele>308.72</ele>
        <time>2017-03-18T08:20:54Z</time>
      </trkpt>
      <trkpt lat="44.21794" lon="4.38027">
        <ele>308.72</ele>
        <time>2017-03-18T08:20:56Z</time>
      </trkpt>
      <trkpt lat="44.21793" lon="4.38029">
        <ele>308.72</ele>
        <time>2017-03-18T08:20:57Z</time>
      </trkpt>
      <trkpt lat="44.21787" lon="4.38041">
        <ele>308.72</ele>
        <time>2017-03-18T08:21:04Z</time>
      </trkpt>
      <trkpt lat="44.21785" lon="4.38044">
        <ele>309.68</ele>
        <time>2017-03-18T08:21:06Z</time>
      </trkpt>
      <trkpt lat="44.21783" lon="4.38047">
        <ele>309.68</ele>
        <time>2017-03-18T08:21:07Z</time>
      </trkpt>
      <trkpt lat="44.21781" lon="4.3805">
        <ele>309.2</ele>
        <time>2017-03-18T08:21:08Z</time>
      </trkpt>
      <trkpt lat="44.21778" lon="4.38054">
        <ele>309.68</ele>
        <time>2017-03-18T08:21:09Z</time>
      </trkpt>
      <trkpt lat="44.21776" lon="4.38058">
        <ele>309.68</ele>
        <time>2017-03-18T08:21:10Z</time>
      </trkpt>
      <trkpt lat="44.21775" lon="4.38059">
        <ele>309.68</ele>
        <time>2017-03-18T08:21:11Z</time>
      </trkpt>
      <trkpt lat="44.21765" lon="4.38069">
        <ele>309.68</ele>
        <time>2017-03-18T08:21:19Z</time>
      </trkpt>
      <trkpt lat="44.21747" lon="4.38094">
        <ele>310.16</ele>
        <time>2017-03-18T08:21:26Z</time>
      </trkpt>
      <trkpt lat="44.21731" lon="4.38118">
        <ele>309.68</ele>
        <time>2017-03-18T08:21:34Z</time>
      </trkpt>
      <trkpt lat="44.21726" lon="4.38127">
        <ele>310.16</ele>
        <time>2017-03-18T08:21:37Z</time>
      </trkpt>
      <trkpt lat="44.21724" lon="4.38129">
        <ele>310.16</ele>
        <time>2017-03-18T08:21:38Z</time>
      </trkpt>
      <trkpt lat="44.21723" lon="4.38131">
        <ele>309.68</ele>
        <time>2017-03-18T08:21:39Z</time>
      </trkpt>
      <trkpt lat="44.21722" lon="4.38133">
        <ele>310.16</ele>
        <time>2017-03-18T08:21:40Z</time>
      </trkpt>
      <trkpt lat="44.21704" lon="4.38161">
        <ele>309.2</ele>
        <time>2017-03-18T08:21:49Z</time>
      </trkpt>
      <trkpt lat="44.21681" lon="4.3819">
        <ele>308.24</ele>
        <time>2017-03-18T08:21:58Z</time>
      </trkpt>
      <trkpt lat="44.21649" lon="4.38225">
        <ele>307.28</ele>
        <time>2017-03-18T08:22:07Z</time>
      </trkpt>
      <trkpt lat="44.21633" lon="4.38249">
        <ele>306.8</ele>
        <time>2017-03-18T08:22:12Z</time>
      </trkpt>
      <trkpt lat="44.21631" lon="4.38253">
        <ele>307.28</ele>
        <time>2017-03-18T08:22:13Z</time>
      </trkpt>
      <trkpt lat="44.21631" lon="4.38255">
        <ele>307.28</ele>
        <time>2017-03-18T08:22:14Z</time>
      </trkpt>
      <trkpt lat="44.2163" lon="4.38258">
        <ele>307.28</ele>
        <time>2017-03-18T08:22:15Z</time>
      </trkpt>
      <trkpt lat="44.21629" lon="4.38261">
        <ele>307.28</ele>
        <time>2017-03-18T08:22:16Z</time>
      </trkpt>
      <trkpt lat="44.21623" lon="4.38273">
        <ele>307.76</ele>
        <time>2017-03-18T08:22:20Z</time>
      </trkpt>
      <trkpt lat="44.21617" lon="4.38289">
        <ele>307.76</ele>
        <time>2017-03-18T08:22:26Z</time>
      </trkpt>
      <trkpt lat="44.21615" lon="4.38295">
        <ele>308.24</ele>
        <time>2017-03-18T08:22:28Z</time>
      </trkpt>
      <trkpt lat="44.21612" lon="4.38312">
        <ele>308.24</ele>
        <time>2017-03-18T08:22:33Z</time>
      </trkpt>
      <trkpt lat="44.2161" lon="4.38315">
        <ele>308.72</ele>
        <time>2017-03-18T08:22:34Z</time>
      </trkpt>
      <trkpt lat="44.21609" lon="4.38318">
        <ele>308.72</ele>
        <time>2017-03-18T08:22:35Z</time>
      </trkpt>
      <trkpt lat="44.21607" lon="4.3832">
        <ele>308.72</ele>
        <time>2017-03-18T08:22:36Z</time>
      </trkpt>
      <trkpt lat="44.21605" lon="4.38322">
        <ele>308.72</ele>
        <time>2017-03-18T08:22:37Z</time>
      </trkpt>
      <trkpt lat="44.21603" lon="4.38325">
        <ele>308.72</ele>
        <time>2017-03-18T08:22:38Z</time>
      </trkpt>
      <trkpt lat="44.21578" lon="4.38355">
        <ele>308.24</ele>
        <time>2017-03-18T08:22:47Z</time>
      </trkpt>
      <trkpt lat="44.21572" lon="4.38359">
        <ele>308.24</ele>
        <time>2017-03-18T08:22:48Z</time>
      </trkpt>
      <trkpt lat="44.2157" lon="4.38358">
        <ele>308.24</ele>
        <time>2017-03-18T08:22:49Z</time>
      </trkpt>
      <trkpt lat="44.2157" lon="4.38355">
        <ele>308.72</ele>
        <time>2017-03-18T08:22:50Z</time>
      </trkpt>
      <trkpt lat="44.2157" lon="4.38352">
        <ele>308.24</ele>
        <time>2017-03-18T08:22:51Z</time>
      </trkpt>
      <trkpt lat="44.2157" lon="4.3835">
        <ele>308.72</ele>
        <time>2017-03-18T08:22:52Z</time>
      </trkpt>
      <trkpt lat="44.2157" lon="4.38347">
        <ele>308.24</ele>
        <time>2017-03-18T08:22:53Z</time>
      </trkpt>
      <trkpt lat="44.2157" lon="4.38344">
        <ele>309.2</ele>
        <time>2017-03-18T08:22:54Z</time>
      </trkpt>
      <trkpt lat="44.2157" lon="4.38341">
        <ele>308.24</ele>
        <time>2017-03-18T08:22:55Z</time>
      </trkpt>
      <trkpt lat="44.2157" lon="4.38338">
        <ele>308.72</ele>
        <time>2017-03-18T08:22:56Z</time>
      </trkpt>
      <trkpt lat="44.2157" lon="4.38335">
        <ele>308.72</ele>
        <time>2017-03-18T08:22:57Z</time>
      </trkpt>
      <trkpt lat="44.2157" lon="4.38332">
        <ele>308.72</ele>
        <time>2017-03-18T08:22:58Z</time>
      </trkpt>
      <trkpt lat="44.2157" lon="4.38328">
        <ele>308.72</ele>
        <time>2017-03-18T08:22:59Z</time>
      </trkpt>
      <trkpt lat="44.2157" lon="4.38325">
        <ele>308.72</ele>
        <time>2017-03-18T08:23:00Z</time>
      </trkpt>
      <trkpt lat="44.2157" lon="4.38322">
        <ele>308.72</ele>
        <time>2017-03-18T08:23:01Z</time>
      </trkpt>
      <trkpt lat="44.21569" lon="4.38318">
        <ele>309.2</ele>
        <time>2017-03-18T08:23:02Z</time>
      </trkpt>
      <trkpt lat="44.21568" lon="4.38315">
        <ele>309.2</ele>
        <time>2017-03-18T08:23:03Z</time>
      </trkpt>
      <trkpt lat="44.21568" lon="4.38312">
        <ele>308.72</ele>
        <time>2017-03-18T08:23:04Z</time>
      </trkpt>
      <trkpt lat="44.21567" lon="4.38308">
        <ele>308.72</ele>
        <time>2017-03-18T08:23:05Z</time>
      </trkpt>
      <trkpt lat="44.21564" lon="4.38298">
        <ele>308.72</ele>
        <time>2017-03-18T08:23:08Z</time>
      </trkpt>
      <trkpt lat="44.21563" lon="4.38294">
        <ele>308.72</ele>
        <time>2017-03-18T08:23:09Z</time>
      </trkpt>
      <trkpt lat="44.2154" lon="4.38234">
        <ele>308.72</ele>
        <time>2017-03-18T08:23:25Z</time>
      </trkpt>
      <trkpt lat="44.21501" lon="4.38161">
        <ele>308.24</ele>
        <time>2017-03-18T08:23:43Z</time>
      </trkpt>
      <trkpt lat="44.21484" lon="4.38122">
        <ele>307.76</ele>
        <time>2017-03-18T08:23:51Z</time>
      </trkpt>
      <trkpt lat="44.21483" lon="4.38116">
        <ele>307.76</ele>
        <time>2017-03-18T08:23:52Z</time>
      </trkpt>
      <trkpt lat="44.21476" lon="4.3808">
        <ele>306.8</ele>
        <time>2017-03-18T08:23:58Z</time>
      </trkpt>
      <trkpt lat="44.21468" lon="4.38023">
        <ele>304.88</ele>
        <time>2017-03-18T08:24:07Z</time>
      </trkpt>
      <trkpt lat="44.21464" lon="4.38005">
        <ele>305.36</ele>
        <time>2017-03-18T08:24:10Z</time>
      </trkpt>
      <trkpt lat="44.21462" lon="4.37998">
        <ele>304.39</ele>
        <time>2017-03-18T08:24:11Z</time>
      </trkpt>
      <trkpt lat="44.21447" lon="4.37865">
        <ele>303.91</ele>
        <time>2017-03-18T08:24:30Z</time>
      </trkpt>
      <trkpt lat="44.21442" lon="4.37817">
        <ele>303.43</ele>
        <time>2017-03-18T08:24:37Z</time>
      </trkpt>
      <trkpt lat="44.2144" lon="4.37811">
        <ele>302.95</ele>
        <time>2017-03-18T08:24:38Z</time>
      </trkpt>
      <trkpt lat="44.21429" lon="4.37783">
        <ele>302.95</ele>
        <time>2017-03-18T08:24:43Z</time>
      </trkpt>
      <trkpt lat="44.21426" lon="4.37778">
        <ele>303.43</ele>
        <time>2017-03-18T08:24:44Z</time>
      </trkpt>
      <trkpt lat="44.21423" lon="4.37773">
        <ele>302.95</ele>
        <time>2017-03-18T08:24:45Z</time>
      </trkpt>
      <trkpt lat="44.2142" lon="4.37769">
        <ele>303.91</ele>
        <time>2017-03-18T08:24:46Z</time>
      </trkpt>
      <trkpt lat="44.21417" lon="4.37765">
        <ele>303.91</ele>
        <time>2017-03-18T08:24:47Z</time>
      </trkpt>
      <trkpt lat="44.21414" lon="4.37761">
        <ele>303.91</ele>
        <time>2017-03-18T08:24:48Z</time>
      </trkpt>
      <trkpt lat="44.21411" lon="4.37758">
        <ele>304.39</ele>
        <time>2017-03-18T08:24:49Z</time>
      </trkpt>
      <trkpt lat="44.21409" lon="4.37755">
        <ele>304.39</ele>
        <time>2017-03-18T08:24:50Z</time>
      </trkpt>
      <trkpt lat="44.21406" lon="4.37751">
        <ele>303.91</ele>
        <time>2017-03-18T08:24:51Z</time>
      </trkpt>
      <trkpt lat="44.21404" lon="4.37749">
        <ele>304.39</ele>
        <time>2017-03-18T08:24:52Z</time>
      </trkpt>
      <trkpt lat="44.21356" lon="4.37707">
        <ele>306.32</ele>
        <time>2017-03-18T08:25:10Z</time>
      </trkpt>
      <trkpt lat="44.21319" lon="4.37677">
        <ele>307.28</ele>
        <time>2017-03-18T08:25:24Z</time>
      </trkpt>
      <trkpt lat="44.21274" lon="4.37645">
        <ele>306.32</ele>
        <time>2017-03-18T08:25:39Z</time>
      </trkpt>
      <trkpt lat="44.21209" lon="4.37613">
        <ele>305.36</ele>
        <time>2017-03-18T08:25:57Z</time>
      </trkpt>
      <trkpt lat="44.21179" lon="4.37595">
        <ele>303.43</ele>
        <time>2017-03-18T08:26:05Z</time>
      </trkpt>
      <trkpt lat="44.2115" lon="4.37581">
        <ele>301.99</ele>
        <time>2017-03-18T08:26:12Z</time>
      </trkpt>
      <trkpt lat="44.21147" lon="4.37579">
        <ele>301.51</ele>
        <time>2017-03-18T08:26:13Z</time>
      </trkpt>
      <trkpt lat="44.21144" lon="4.37576">
        <ele>301.51</ele>
        <time>2017-03-18T08:26:14Z</time>
      </trkpt>
      <trkpt lat="44.21132" lon="4.37556">
        <ele>300.55</ele>
        <time>2017-03-18T08:26:19Z</time>
      </trkpt>
      <trkpt lat="44.21117" lon="4.37493">
        <ele>299.59</ele>
        <time>2017-03-18T08:26:33Z</time>
      </trkpt>
      <trkpt lat="44.21099" lon="4.37451">
        <ele>298.15</ele>
        <time>2017-03-18T08:26:45Z</time>
      </trkpt>
      <trkpt lat="44.21066" lon="4.37399">
        <ele>296.7</ele>
        <time>2017-03-18T08:26:59Z</time>
      </trkpt>
      <trkpt lat="44.21037" lon="4.37351">
        <ele>293.82</ele>
        <time>2017-03-18T08:27:12Z</time>
      </trkpt>
      <trkpt lat="44.20999" lon="4.37317">
        <ele>290.46</ele>
        <time>2017-03-18T08:27:25Z</time>
      </trkpt>
      <trkpt lat="44.20956" lon="4.37298">
        <ele>288.53</ele>
        <time>2017-03-18T08:27:40Z</time>
      </trkpt>
      <trkpt lat="44.20945" lon="4.37288">
        <ele>287.57</ele>
        <time>2017-03-18T08:27:43Z</time>
      </trkpt>
      <trkpt lat="44.2094" lon="4.37284">
        <ele>286.13</ele>
        <time>2017-03-18T08:27:44Z</time>
      </trkpt>
      <trkpt lat="44.20934" lon="4.37282">
        <ele>286.13</ele>
        <time>2017-03-18T08:27:45Z</time>
      </trkpt>
      <trkpt lat="44.20929" lon="4.3728">
        <ele>285.65</ele>
        <time>2017-03-18T08:27:46Z</time>
      </trkpt>
      <trkpt lat="44.20904" lon="4.37276">
        <ele>284.69</ele>
        <time>2017-03-18T08:27:55Z</time>
      </trkpt>
      <trkpt lat="44.2089" lon="4.37272">
        <ele>283.73</ele>
        <time>2017-03-18T08:27:59Z</time>
      </trkpt>
      <trkpt lat="44.20882" lon="4.37268">
        <ele>282.28</ele>
        <time>2017-03-18T08:28:01Z</time>
      </trkpt>
      <trkpt lat="44.20867" lon="4.37257">
        <ele>281.8</ele>
        <time>2017-03-18T08:28:10Z</time>
      </trkpt>
      <trkpt lat="44.20868" lon="4.37255">
        <ele>281.8</ele>
        <time>2017-03-18T08:28:39Z</time>
      </trkpt>
      <trkpt lat="44.20867" lon="4.37254">
        <ele>281.32</ele>
        <time>2017-03-18T08:29:07Z</time>
      </trkpt>
      <trkpt lat="44.20867" lon="4.37254">
        <ele>281.32</ele>
        <time>2017-03-18T08:29:23Z</time>
      </trkpt>
      <trkpt lat="44.20866" lon="4.37252">
        <ele>281.32</ele>
        <time>2017-03-18T08:29:24Z</time>
      </trkpt>
      <trkpt lat="44.20866" lon="4.3725">
        <ele>280.84</ele>
        <time>2017-03-18T08:29:25Z</time>
      </trkpt>
      <trkpt lat="44.20865" lon="4.37247">
        <ele>281.8</ele>
        <time>2017-03-18T08:29:26Z</time>
      </trkpt>
      <trkpt lat="44.20864" lon="4.37243">
        <ele>280.84</ele>
        <time>2017-03-18T08:29:27Z</time>
      </trkpt>
      <trkpt lat="44.20863" lon="4.37239">
        <ele>280.36</ele>
        <time>2017-03-18T08:29:28Z</time>
      </trkpt>
      <trkpt lat="44.20861" lon="4.37224">
        <ele>279.88</ele>
        <time>2017-03-18T08:29:31Z</time>
      </trkpt>
      <trkpt lat="44.2086" lon="4.37218">
        <ele>279.88</ele>
        <time>2017-03-18T08:29:32Z</time>
      </trkpt>
      <trkpt lat="44.20856" lon="4.37195">
        <ele>278.92</ele>
        <time>2017-03-18T08:29:36Z</time>
      </trkpt>
      <trkpt lat="44.20854" lon="4.37189">
        <ele>278.44</ele>
        <time>2017-03-18T08:29:37Z</time>
      </trkpt>
      <trkpt lat="44.20833" lon="4.37108">
        <ele>277</ele>
        <time>2017-03-18T08:29:52Z</time>
      </trkpt>
      <trkpt lat="44.20812" lon="4.37012">
        <ele>275.56</ele>
        <time>2017-03-18T08:30:09Z</time>
      </trkpt>
      <trkpt lat="44.20812" lon="4.37001">
        <ele>275.56</ele>
        <time>2017-03-18T08:30:11Z</time>
      </trkpt>
      <trkpt lat="44.20813" lon="4.36995">
        <ele>275.07</ele>
        <time>2017-03-18T08:30:12Z</time>
      </trkpt>
      <trkpt lat="44.20814" lon="4.3699">
        <ele>275.07</ele>
        <time>2017-03-18T08:30:13Z</time>
      </trkpt>
      <trkpt lat="44.20824" lon="4.36951">
        <ele>275.07</ele>
        <time>2017-03-18T08:30:20Z</time>
      </trkpt>
      <trkpt lat="44.20826" lon="4.36945">
        <ele>274.59</ele>
        <time>2017-03-18T08:30:21Z</time>
      </trkpt>
      <trkpt lat="44.2083" lon="4.36937">
        <ele>274.59</ele>
        <time>2017-03-18T08:30:23Z</time>
      </trkpt>
      <trkpt lat="44.20833" lon="4.36932">
        <ele>274.59</ele>
        <time>2017-03-18T08:30:24Z</time>
      </trkpt>
      <trkpt lat="44.20851" lon="4.36899">
        <ele>274.59</ele>
        <time>2017-03-18T08:30:31Z</time>
      </trkpt>
      <trkpt lat="44.20853" lon="4.36894">
        <ele>274.59</ele>
        <time>2017-03-18T08:30:32Z</time>
      </trkpt>
      <trkpt lat="44.20855" lon="4.36889">
        <ele>274.11</ele>
        <time>2017-03-18T08:30:33Z</time>
      </trkpt>
      <trkpt lat="44.2086" lon="4.36818">
        <ele>276.04</ele>
        <time>2017-03-18T08:30:48Z</time>
      </trkpt>
      <trkpt lat="44.20846" lon="4.3678">
        <ele>277.96</ele>
        <time>2017-03-18T08:31:00Z</time>
      </trkpt>
      <trkpt lat="44.20823" lon="4.36746">
        <ele>278.92</ele>
        <time>2017-03-18T08:31:12Z</time>
      </trkpt>
      <trkpt lat="44.20794" lon="4.36709">
        <ele>277.96</ele>
        <time>2017-03-18T08:31:26Z</time>
      </trkpt>
      <trkpt lat="44.2079" lon="4.36702">
        <ele>277.48</ele>
        <time>2017-03-18T08:31:28Z</time>
      </trkpt>
      <trkpt lat="44.20786" lon="4.36689">
        <ele>277</ele>
        <time>2017-03-18T08:31:31Z</time>
      </trkpt>
      <trkpt lat="44.20782" lon="4.36684">
        <ele>276.52</ele>
        <time>2017-03-18T08:31:32Z</time>
      </trkpt>
      <trkpt lat="44.20778" lon="4.3668">
        <ele>276.04</ele>
        <time>2017-03-18T08:31:33Z</time>
      </trkpt>
      <trkpt lat="44.20772" lon="4.36676">
        <ele>275.07</ele>
        <time>2017-03-18T08:31:34Z</time>
      </trkpt>
      <trkpt lat="44.20766" lon="4.36673">
        <ele>274.59</ele>
        <time>2017-03-18T08:31:35Z</time>
      </trkpt>
      <trkpt lat="44.2076" lon="4.3667">
        <ele>274.11</ele>
        <time>2017-03-18T08:31:36Z</time>
      </trkpt>
      <trkpt lat="44.20743" lon="4.36662">
        <ele>274.11</ele>
        <time>2017-03-18T08:31:39Z</time>
      </trkpt>
      <trkpt lat="44.20738" lon="4.3666">
        <ele>273.63</ele>
        <time>2017-03-18T08:31:40Z</time>
      </trkpt>
      <trkpt lat="44.20734" lon="4.36657">
        <ele>274.11</ele>
        <time>2017-03-18T08:31:41Z</time>
      </trkpt>
      <trkpt lat="44.20731" lon="4.36654">
        <ele>274.11</ele>
        <time>2017-03-18T08:31:42Z</time>
      </trkpt>
      <trkpt lat="44.20728" lon="4.3665">
        <ele>274.11</ele>
        <time>2017-03-18T08:31:43Z</time>
      </trkpt>
      <trkpt lat="44.20719" lon="4.36639">
        <ele>274.59</ele>
        <time>2017-03-18T08:31:48Z</time>
      </trkpt>
      <trkpt lat="44.20718" lon="4.36636">
        <ele>275.07</ele>
        <time>2017-03-18T08:31:49Z</time>
      </trkpt>
      <trkpt lat="44.20694" lon="4.36607">
        <ele>275.07</ele>
        <time>2017-03-18T08:32:04Z</time>
      </trkpt>
      <trkpt lat="44.2067" lon="4.36569">
        <ele>273.15</ele>
        <time>2017-03-18T08:32:17Z</time>
      </trkpt>
      <trkpt lat="44.20667" lon="4.36557">
        <ele>272.67</ele>
        <time>2017-03-18T08:32:19Z</time>
      </trkpt>
      <trkpt lat="44.20662" lon="4.36537">
        <ele>271.71</ele>
        <time>2017-03-18T08:32:22Z</time>
      </trkpt>
      <trkpt lat="44.20659" lon="4.36531">
        <ele>271.71</ele>
        <time>2017-03-18T08:32:23Z</time>
      </trkpt>
      <trkpt lat="44.20645" lon="4.36489">
        <ele>270.75</ele>
        <time>2017-03-18T08:32:30Z</time>
      </trkpt>
      <trkpt lat="44.20646" lon="4.36483">
        <ele>271.23</ele>
        <time>2017-03-18T08:32:31Z</time>
      </trkpt>
      <trkpt lat="44.2065" lon="4.36417">
        <ele>270.27</ele>
        <time>2017-03-18T08:32:44Z</time>
      </trkpt>
      <trkpt lat="44.20631" lon="4.36358">
        <ele>269.31</ele>
        <time>2017-03-18T08:32:57Z</time>
      </trkpt>
      <trkpt lat="44.20611" lon="4.36341">
        <ele>268.83</ele>
        <time>2017-03-18T08:33:07Z</time>
      </trkpt>
      <trkpt lat="44.20606" lon="4.36337">
        <ele>269.31</ele>
        <time>2017-03-18T08:33:22Z</time>
      </trkpt>
      <trkpt lat="44.20593" lon="4.36334">
        <ele>267.38</ele>
        <time>2017-03-18T08:33:29Z</time>
      </trkpt>
      <trkpt lat="44.20584" lon="4.36333">
        <ele>266.9</ele>
        <time>2017-03-18T08:33:31Z</time>
      </trkpt>
      <trkpt lat="44.20576" lon="4.36331">
        <ele>265.46</ele>
        <time>2017-03-18T08:33:33Z</time>
      </trkpt>
      <trkpt lat="44.20548" lon="4.3632">
        <ele>263.54</ele>
        <time>2017-03-18T08:33:39Z</time>
      </trkpt>
      <trkpt lat="44.20484" lon="4.3629">
        <ele>262.1</ele>
        <time>2017-03-18T08:33:54Z</time>
      </trkpt>
      <trkpt lat="44.20467" lon="4.36283">
        <ele>262.1</ele>
        <time>2017-03-18T08:33:58Z</time>
      </trkpt>
      <trkpt lat="44.20401" lon="4.36263">
        <ele>261.62</ele>
        <time>2017-03-18T08:34:16Z</time>
      </trkpt>
      <trkpt lat="44.20352" lon="4.36247">
        <ele>261.62</ele>
        <time>2017-03-18T08:34:31Z</time>
      </trkpt>
      <trkpt lat="44.20298" lon="4.36227">
        <ele>261.62</ele>
        <time>2017-03-18T08:34:50Z</time>
      </trkpt>
      <trkpt lat="44.20252" lon="4.3619">
        <ele>261.14</ele>
        <time>2017-03-18T08:35:08Z</time>
      </trkpt>
      <trkpt lat="44.20217" lon="4.36149">
        <ele>261.62</ele>
        <time>2017-03-18T08:35:24Z</time>
      </trkpt>
      <trkpt lat="44.20211" lon="4.36119">
        <ele>260.65</ele>
        <time>2017-03-18T08:35:34Z</time>
      </trkpt>
      <trkpt lat="44.20225" lon="4.36073">
        <ele>262.1</ele>
        <time>2017-03-18T08:35:46Z</time>
      </trkpt>
      <trkpt lat="44.2024" lon="4.3602">
        <ele>262.58</ele>
        <time>2017-03-18T08:36:00Z</time>
      </trkpt>
      <trkpt lat="44.20251" lon="4.35971">
        <ele>264.02</ele>
        <time>2017-03-18T08:36:12Z</time>
      </trkpt>
      <trkpt lat="44.20268" lon="4.35924">
        <ele>264.02</ele>
        <time>2017-03-18T08:36:27Z</time>
      </trkpt>
      <trkpt lat="44.20309" lon="4.359">
        <ele>262.58</ele>
        <time>2017-03-18T08:36:41Z</time>
      </trkpt>
      <trkpt lat="44.20346" lon="4.35886">
        <ele>262.1</ele>
        <time>2017-03-18T08:36:53Z</time>
      </trkpt>
      <trkpt lat="44.20395" lon="4.35846">
        <ele>262.58</ele>
        <time>2017-03-18T08:37:10Z</time>
      </trkpt>
      <trkpt lat="44.20434" lon="4.35811">
        <ele>263.54</ele>
        <time>2017-03-18T08:37:25Z</time>
      </trkpt>
      <trkpt lat="44.20463" lon="4.35776">
        <ele>264.98</ele>
        <time>2017-03-18T08:37:39Z</time>
      </trkpt>
      <trkpt lat="44.20489" lon="4.35745">
        <ele>264.98</ele>
        <time>2017-03-18T08:37:52Z</time>
      </trkpt>
      <trkpt lat="44.2052" lon="4.35704">
        <ele>265.94</ele>
        <time>2017-03-18T08:38:08Z</time>
      </trkpt>
      <trkpt lat="44.20537" lon="4.3567">
        <ele>266.9</ele>
        <time>2017-03-18T08:38:20Z</time>
      </trkpt>
      <trkpt lat="44.20553" lon="4.35646">
        <ele>267.86</ele>
        <time>2017-03-18T08:38:31Z</time>
      </trkpt>
      <trkpt lat="44.2057" lon="4.35644">
        <ele>268.35</ele>
        <time>2017-03-18T08:38:42Z</time>
      </trkpt>
      <trkpt lat="44.20571" lon="4.35643">
        <ele>267.86</ele>
        <time>2017-03-18T08:38:57Z</time>
      </trkpt>
      <trkpt lat="44.20571" lon="4.35644">
        <ele>267.86</ele>
        <time>2017-03-18T08:39:32Z</time>
      </trkpt>
      <trkpt lat="44.20572" lon="4.35644">
        <ele>267.86</ele>
        <time>2017-03-18T08:40:09Z</time>
      </trkpt>
      <trkpt lat="44.20572" lon="4.35643">
        <ele>268.83</ele>
        <time>2017-03-18T08:40:44Z</time>
      </trkpt>
      <trkpt lat="44.20576" lon="4.35642">
        <ele>268.35</ele>
        <time>2017-03-18T08:41:01Z</time>
      </trkpt>
      <trkpt lat="44.20601" lon="4.35636">
        <ele>268.83</ele>
        <time>2017-03-18T08:41:12Z</time>
      </trkpt>
      <trkpt lat="44.20604" lon="4.35635">
        <ele>268.35</ele>
        <time>2017-03-18T08:41:13Z</time>
      </trkpt>
      <trkpt lat="44.20613" lon="4.35638">
        <ele>268.35</ele>
        <time>2017-03-18T08:41:17Z</time>
      </trkpt>
      <trkpt lat="44.20653" lon="4.35654">
        <ele>268.83</ele>
        <time>2017-03-18T08:41:32Z</time>
      </trkpt>
      <trkpt lat="44.20691" lon="4.35699">
        <ele>269.31</ele>
        <time>2017-03-18T08:41:47Z</time>
      </trkpt>
      <trkpt lat="44.20718" lon="4.35761">
        <ele>269.79</ele>
        <time>2017-03-18T08:42:03Z</time>
      </trkpt>
      <trkpt lat="44.2074" lon="4.35823">
        <ele>270.27</ele>
        <time>2017-03-18T08:42:18Z</time>
      </trkpt>
      <trkpt lat="44.20774" lon="4.35883">
        <ele>269.79</ele>
        <time>2017-03-18T08:42:33Z</time>
      </trkpt>
      <trkpt lat="44.20803" lon="4.35932">
        <ele>272.19</ele>
        <time>2017-03-18T08:42:47Z</time>
      </trkpt>
      <trkpt lat="44.20827" lon="4.35985">
        <ele>272.67</ele>
        <time>2017-03-18T08:43:03Z</time>
      </trkpt>
      <trkpt lat="44.20858" lon="4.36029">
        <ele>274.11</ele>
        <time>2017-03-18T08:43:19Z</time>
      </trkpt>
      <trkpt lat="44.20891" lon="4.36068">
        <ele>275.07</ele>
        <time>2017-03-18T08:43:35Z</time>
      </trkpt>
      <trkpt lat="44.20917" lon="4.36101">
        <ele>277.48</ele>
        <time>2017-03-18T08:43:49Z</time>
      </trkpt>
      <trkpt lat="44.20925" lon="4.36114">
        <ele>277.48</ele>
        <time>2017-03-18T08:43:55Z</time>
      </trkpt>
      <trkpt lat="44.20943" lon="4.36149">
        <ele>279.4</ele>
        <time>2017-03-18T08:44:09Z</time>
      </trkpt>
      <trkpt lat="44.20954" lon="4.36165">
        <ele>280.84</ele>
        <time>2017-03-18T08:44:17Z</time>
      </trkpt>
      <trkpt lat="44.20964" lon="4.36183">
        <ele>283.25</ele>
        <time>2017-03-18T08:44:28Z</time>
      </trkpt>
      <trkpt lat="44.20968" lon="4.36197">
        <ele>284.69</ele>
        <time>2017-03-18T08:44:35Z</time>
      </trkpt>
      <trkpt lat="44.20972" lon="4.36224">
        <ele>286.61</ele>
        <time>2017-03-18T08:44:49Z</time>
      </trkpt>
      <trkpt lat="44.20973" lon="4.3623">
        <ele>287.09</ele>
        <time>2017-03-18T08:44:52Z</time>
      </trkpt>
      <trkpt lat="44.20973" lon="4.36238">
        <ele>287.57</ele>
        <time>2017-03-18T08:44:56Z</time>
      </trkpt>
      <trkpt lat="44.2097" lon="4.36268">
        <ele>288.05</ele>
        <time>2017-03-18T08:45:11Z</time>
      </trkpt>
      <trkpt lat="44.2097" lon="4.36271">
        <ele>288.05</ele>
        <time>2017-03-18T08:45:12Z</time>
      </trkpt>
      <trkpt lat="44.20971" lon="4.36287">
        <ele>289.01</ele>
        <time>2017-03-18T08:45:19Z</time>
      </trkpt>
      <trkpt lat="44.20981" lon="4.36317">
        <ele>289.97</ele>
        <time>2017-03-18T08:45:33Z</time>
      </trkpt>
      <trkpt lat="44.20996" lon="4.36356">
        <ele>289.97</ele>
        <time>2017-03-18T08:45:50Z</time>
      </trkpt>
      <trkpt lat="44.21012" lon="4.36385">
        <ele>290.46</ele>
        <time>2017-03-18T08:46:02Z</time>
      </trkpt>
      <trkpt lat="44.21055" lon="4.36417">
        <ele>289.49</ele>
        <time>2017-03-18T08:46:19Z</time>
      </trkpt>
      <trkpt lat="44.21093" lon="4.36428">
        <ele>290.46</ele>
        <time>2017-03-18T08:46:33Z</time>
      </trkpt>
      <trkpt lat="44.21124" lon="4.36431">
        <ele>291.9</ele>
        <time>2017-03-18T08:46:46Z</time>
      </trkpt>
      <trkpt lat="44.21163" lon="4.36439">
        <ele>293.34</ele>
        <time>2017-03-18T08:47:02Z</time>
      </trkpt>
      <trkpt lat="44.21201" lon="4.3645">
        <ele>294.3</ele>
        <time>2017-03-18T08:47:18Z</time>
      </trkpt>
      <trkpt lat="44.21241" lon="4.36463">
        <ele>295.26</ele>
        <time>2017-03-18T08:47:35Z</time>
      </trkpt>
      <trkpt lat="44.21277" lon="4.36466">
        <ele>296.7</ele>
        <time>2017-03-18T08:47:50Z</time>
      </trkpt>
      <trkpt lat="44.21304" lon="4.36467">
        <ele>297.18</ele>
        <time>2017-03-18T08:48:01Z</time>
      </trkpt>
      <trkpt lat="44.21343" lon="4.36474">
        <ele>297.18</ele>
        <time>2017-03-18T08:48:16Z</time>
      </trkpt>
      <trkpt lat="44.21388" lon="4.36484">
        <ele>297.67</ele>
        <time>2017-03-18T08:48:33Z</time>
      </trkpt>
      <trkpt lat="44.21439" lon="4.36477">
        <ele>298.63</ele>
        <time>2017-03-18T08:48:50Z</time>
      </trkpt>
      <trkpt lat="44.21472" lon="4.36458">
        <ele>299.11</ele>
        <time>2017-03-18T08:49:03Z</time>
      </trkpt>
      <trkpt lat="44.21515" lon="4.36432">
        <ele>299.59</ele>
        <time>2017-03-18T08:49:19Z</time>
      </trkpt>
      <trkpt lat="44.21559" lon="4.36403">
        <ele>300.55</ele>
        <time>2017-03-18T08:49:36Z</time>
      </trkpt>
      <trkpt lat="44.21609" lon="4.3639">
        <ele>300.55</ele>
        <time>2017-03-18T08:49:53Z</time>
      </trkpt>
      <trkpt lat="44.21661" lon="4.36404">
        <ele>300.07</ele>
        <time>2017-03-18T08:50:10Z</time>
      </trkpt>
      <trkpt lat="44.21711" lon="4.36413">
        <ele>299.11</ele>
        <time>2017-03-18T08:50:25Z</time>
      </trkpt>
      <trkpt lat="44.21752" lon="4.36401">
        <ele>298.15</ele>
        <time>2017-03-18T08:50:38Z</time>
      </trkpt>
      <trkpt lat="44.21779" lon="4.3638">
        <ele>297.18</ele>
        <time>2017-03-18T08:50:48Z</time>
      </trkpt>
      <trkpt lat="44.21819" lon="4.36394">
        <ele>296.22</ele>
        <time>2017-03-18T08:51:01Z</time>
      </trkpt>
      <trkpt lat="44.2186" lon="4.3642">
        <ele>295.26</ele>
        <time>2017-03-18T08:51:13Z</time>
      </trkpt>
      <trkpt lat="44.21911" lon="4.36452">
        <ele>295.26</ele>
        <time>2017-03-18T08:51:29Z</time>
      </trkpt>
      <trkpt lat="44.21939" lon="4.36448">
        <ele>295.74</ele>
        <time>2017-03-18T08:51:41Z</time>
      </trkpt>
      <trkpt lat="44.2194" lon="4.36446">
        <ele>296.22</ele>
        <time>2017-03-18T08:51:42Z</time>
      </trkpt>
      <trkpt lat="44.21939" lon="4.36444">
        <ele>296.22</ele>
        <time>2017-03-18T08:51:43Z</time>
      </trkpt>
      <trkpt lat="44.21938" lon="4.36442">
        <ele>295.74</ele>
        <time>2017-03-18T08:51:44Z</time>
      </trkpt>
      <trkpt lat="44.21937" lon="4.36441">
        <ele>295.74</ele>
        <time>2017-03-18T08:51:45Z</time>
      </trkpt>
      <trkpt lat="44.21935" lon="4.3644">
        <ele>295.74</ele>
        <time>2017-03-18T08:51:46Z</time>
      </trkpt>
      <trkpt lat="44.21933" lon="4.36438">
        <ele>295.74</ele>
        <time>2017-03-18T08:51:47Z</time>
      </trkpt>
      <trkpt lat="44.2193" lon="4.36437">
        <ele>295.74</ele>
        <time>2017-03-18T08:51:48Z</time>
      </trkpt>
      <trkpt lat="44.21926" lon="4.36433">
        <ele>296.22</ele>
        <time>2017-03-18T08:51:50Z</time>
      </trkpt>
      <trkpt lat="44.21925" lon="4.36429">
        <ele>295.74</ele>
        <time>2017-03-18T08:51:51Z</time>
      </trkpt>
      <trkpt lat="44.21925" lon="4.36426">
        <ele>296.22</ele>
        <time>2017-03-18T08:51:52Z</time>
      </trkpt>
      <trkpt lat="44.21926" lon="4.36422">
        <ele>295.74</ele>
        <time>2017-03-18T08:51:53Z</time>
      </trkpt>
      <trkpt lat="44.21927" lon="4.36419">
        <ele>296.22</ele>
        <time>2017-03-18T08:51:54Z</time>
      </trkpt>
      <trkpt lat="44.21928" lon="4.36416">
        <ele>296.7</ele>
        <time>2017-03-18T08:51:55Z</time>
      </trkpt>
      <trkpt lat="44.21924" lon="4.36375">
        <ele>297.67</ele>
        <time>2017-03-18T08:52:06Z</time>
      </trkpt>
      <trkpt lat="44.21911" lon="4.36351">
        <ele>297.67</ele>
        <time>2017-03-18T08:52:13Z</time>
      </trkpt>
      <trkpt lat="44.21908" lon="4.36348">
        <ele>298.15</ele>
        <time>2017-03-18T08:52:14Z</time>
      </trkpt>
      <trkpt lat="44.21906" lon="4.36345">
        <ele>298.15</ele>
        <time>2017-03-18T08:52:15Z</time>
      </trkpt>
      <trkpt lat="44.21885" lon="4.36291">
        <ele>298.15</ele>
        <time>2017-03-18T08:52:29Z</time>
      </trkpt>
      <trkpt lat="44.2188" lon="4.36275">
        <ele>298.63</ele>
        <time>2017-03-18T08:52:33Z</time>
      </trkpt>
      <trkpt lat="44.21879" lon="4.36272">
        <ele>298.15</ele>
        <time>2017-03-18T08:52:34Z</time>
      </trkpt>
      <trkpt lat="44.21877" lon="4.36268">
        <ele>298.15</ele>
        <time>2017-03-18T08:52:35Z</time>
      </trkpt>
      <trkpt lat="44.21876" lon="4.36263">
        <ele>298.15</ele>
        <time>2017-03-18T08:52:36Z</time>
      </trkpt>
      <trkpt lat="44.21877" lon="4.36259">
        <ele>298.15</ele>
        <time>2017-03-18T08:52:37Z</time>
      </trkpt>
      <trkpt lat="44.21878" lon="4.36255">
        <ele>298.15</ele>
        <time>2017-03-18T08:52:38Z</time>
      </trkpt>
      <trkpt lat="44.2188" lon="4.36252">
        <ele>298.15</ele>
        <time>2017-03-18T08:52:39Z</time>
      </trkpt>
      <trkpt lat="44.21882" lon="4.3625">
        <ele>298.63</ele>
        <time>2017-03-18T08:52:40Z</time>
      </trkpt>
      <trkpt lat="44.21885" lon="4.36248">
        <ele>298.63</ele>
        <time>2017-03-18T08:52:41Z</time>
      </trkpt>
      <trkpt lat="44.21887" lon="4.36248">
        <ele>299.11</ele>
        <time>2017-03-18T08:52:42Z</time>
      </trkpt>
      <trkpt lat="44.2189" lon="4.36248">
        <ele>299.11</ele>
        <time>2017-03-18T08:52:43Z</time>
      </trkpt>
      <trkpt lat="44.21893" lon="4.36248">
        <ele>299.11</ele>
        <time>2017-03-18T08:52:44Z</time>
      </trkpt>
      <trkpt lat="44.21913" lon="4.36221">
        <ele>300.07</ele>
        <time>2017-03-18T08:52:54Z</time>
      </trkpt>
      <trkpt lat="44.2192" lon="4.36181">
        <ele>300.07</ele>
        <time>2017-03-18T08:53:04Z</time>
      </trkpt>
      <trkpt lat="44.21919" lon="4.36177">
        <ele>300.07</ele>
        <time>2017-03-18T08:53:05Z</time>
      </trkpt>
      <trkpt lat="44.21918" lon="4.36173">
        <ele>300.07</ele>
        <time>2017-03-18T08:53:06Z</time>
      </trkpt>
      <trkpt lat="44.21916" lon="4.36169">
        <ele>299.59</ele>
        <time>2017-03-18T08:53:07Z</time>
      </trkpt>
      <trkpt lat="44.21905" lon="4.36158">
        <ele>299.59</ele>
        <time>2017-03-18T08:53:11Z</time>
      </trkpt>
      <trkpt lat="44.21902" lon="4.36155">
        <ele>299.59</ele>
        <time>2017-03-18T08:53:12Z</time>
      </trkpt>
      <trkpt lat="44.21899" lon="4.36154">
        <ele>299.11</ele>
        <time>2017-03-18T08:53:13Z</time>
      </trkpt>
      <trkpt lat="44.21888" lon="4.36151">
        <ele>298.63</ele>
        <time>2017-03-18T08:53:17Z</time>
      </trkpt>
      <trkpt lat="44.21886" lon="4.36149">
        <ele>298.63</ele>
        <time>2017-03-18T08:53:18Z</time>
      </trkpt>
      <trkpt lat="44.21884" lon="4.36145">
        <ele>298.15</ele>
        <time>2017-03-18T08:53:19Z</time>
      </trkpt>
      <trkpt lat="44.21883" lon="4.36141">
        <ele>298.15</ele>
        <time>2017-03-18T08:53:20Z</time>
      </trkpt>
      <trkpt lat="44.21882" lon="4.36136">
        <ele>297.67</ele>
        <time>2017-03-18T08:53:21Z</time>
      </trkpt>
      <trkpt lat="44.21883" lon="4.36132">
        <ele>298.15</ele>
        <time>2017-03-18T08:53:22Z</time>
      </trkpt>
      <trkpt lat="44.21883" lon="4.36128">
        <ele>298.15</ele>
        <time>2017-03-18T08:53:23Z</time>
      </trkpt>
      <trkpt lat="44.21881" lon="4.36125">
        <ele>298.15</ele>
        <time>2017-03-18T08:53:24Z</time>
      </trkpt>
      <trkpt lat="44.21879" lon="4.36123">
        <ele>298.15</ele>
        <time>2017-03-18T08:53:25Z</time>
      </trkpt>
      <trkpt lat="44.21878" lon="4.36119">
        <ele>298.15</ele>
        <time>2017-03-18T08:53:26Z</time>
      </trkpt>
      <trkpt lat="44.21878" lon="4.36115">
        <ele>298.63</ele>
        <time>2017-03-18T08:53:27Z</time>
      </trkpt>
      <trkpt lat="44.21879" lon="4.36112">
        <ele>298.63</ele>
        <time>2017-03-18T08:53:28Z</time>
      </trkpt>
      <trkpt lat="44.21881" lon="4.36109">
        <ele>298.63</ele>
        <time>2017-03-18T08:53:29Z</time>
      </trkpt>
      <trkpt lat="44.21883" lon="4.36105">
        <ele>298.15</ele>
        <time>2017-03-18T08:53:30Z</time>
      </trkpt>
      <trkpt lat="44.21884" lon="4.36102">
        <ele>298.63</ele>
        <time>2017-03-18T08:53:31Z</time>
      </trkpt>
      <trkpt lat="44.21901" lon="4.36053">
        <ele>299.11</ele>
        <time>2017-03-18T08:53:43Z</time>
      </trkpt>
      <trkpt lat="44.21909" lon="4.36001">
        <ele>299.59</ele>
        <time>2017-03-18T08:53:55Z</time>
      </trkpt>
      <trkpt lat="44.21932" lon="4.35968">
        <ele>300.07</ele>
        <time>2017-03-18T08:54:05Z</time>
      </trkpt>
      <trkpt lat="44.21935" lon="4.35967">
        <ele>300.07</ele>
        <time>2017-03-18T08:54:06Z</time>
      </trkpt>
      <trkpt lat="44.21938" lon="4.35967">
        <ele>300.07</ele>
        <time>2017-03-18T08:54:07Z</time>
      </trkpt>
      <trkpt lat="44.21941" lon="4.35968">
        <ele>300.07</ele>
        <time>2017-03-18T08:54:08Z</time>
      </trkpt>
      <trkpt lat="44.21944" lon="4.35967">
        <ele>300.55</ele>
        <time>2017-03-18T08:54:09Z</time>
      </trkpt>
      <trkpt lat="44.21948" lon="4.35966">
        <ele>300.07</ele>
        <time>2017-03-18T08:54:10Z</time>
      </trkpt>
      <trkpt lat="44.21951" lon="4.35964">
        <ele>300.07</ele>
        <time>2017-03-18T08:54:11Z</time>
      </trkpt>
      <trkpt lat="44.21954" lon="4.35962">
        <ele>300.07</ele>
        <time>2017-03-18T08:54:12Z</time>
      </trkpt>
      <trkpt lat="44.21956" lon="4.35958">
        <ele>300.55</ele>
        <time>2017-03-18T08:54:13Z</time>
      </trkpt>
      <trkpt lat="44.21958" lon="4.35954">
        <ele>300.07</ele>
        <time>2017-03-18T08:54:14Z</time>
      </trkpt>
      <trkpt lat="44.21978" lon="4.35923">
        <ele>300.55</ele>
        <time>2017-03-18T08:54:24Z</time>
      </trkpt>
      <trkpt lat="44.21981" lon="4.35921">
        <ele>300.55</ele>
        <time>2017-03-18T08:54:25Z</time>
      </trkpt>
      <trkpt lat="44.21982" lon="4.35917">
        <ele>301.03</ele>
        <time>2017-03-18T08:54:26Z</time>
      </trkpt>
      <trkpt lat="44.21982" lon="4.35913">
        <ele>300.55</ele>
        <time>2017-03-18T08:54:27Z</time>
      </trkpt>
      <trkpt lat="44.21982" lon="4.35909">
        <ele>301.03</ele>
        <time>2017-03-18T08:54:28Z</time>
      </trkpt>
      <trkpt lat="44.21981" lon="4.35904">
        <ele>301.51</ele>
        <time>2017-03-18T08:54:29Z</time>
      </trkpt>
      <trkpt lat="44.21982" lon="4.35901">
        <ele>301.51</ele>
        <time>2017-03-18T08:54:30Z</time>
      </trkpt>
      <trkpt lat="44.21983" lon="4.35897">
        <ele>301.51</ele>
        <time>2017-03-18T08:54:31Z</time>
      </trkpt>
      <trkpt lat="44.21985" lon="4.35894">
        <ele>301.51</ele>
        <time>2017-03-18T08:54:32Z</time>
      </trkpt>
      <trkpt lat="44.21986" lon="4.3589">
        <ele>301.51</ele>
        <time>2017-03-18T08:54:33Z</time>
      </trkpt>
      <trkpt lat="44.21988" lon="4.35886">
        <ele>301.99</ele>
        <time>2017-03-18T08:54:34Z</time>
      </trkpt>
      <trkpt lat="44.2199" lon="4.35882">
        <ele>301.99</ele>
        <time>2017-03-18T08:54:35Z</time>
      </trkpt>
      <trkpt lat="44.22001" lon="4.3584">
        <ele>301.99</ele>
        <time>2017-03-18T08:54:46Z</time>
      </trkpt>
      <trkpt lat="44.22022" lon="4.35795">
        <ele>302.47</ele>
        <time>2017-03-18T08:54:59Z</time>
      </trkpt>
      <trkpt lat="44.22033" lon="4.35781">
        <ele>302.95</ele>
        <time>2017-03-18T08:55:04Z</time>
      </trkpt>
      <trkpt lat="44.22035" lon="4.35779">
        <ele>302.47</ele>
        <time>2017-03-18T08:55:05Z</time>
      </trkpt>
      <trkpt lat="44.22038" lon="4.35779">
        <ele>302.47</ele>
        <time>2017-03-18T08:55:06Z</time>
      </trkpt>
      <trkpt lat="44.22065" lon="4.35765">
        <ele>302.47</ele>
        <time>2017-03-18T08:55:16Z</time>
      </trkpt>
      <trkpt lat="44.22092" lon="4.35731">
        <ele>302.95</ele>
        <time>2017-03-18T08:55:28Z</time>
      </trkpt>
      <trkpt lat="44.22121" lon="4.35717">
        <ele>302.95</ele>
        <time>2017-03-18T08:55:38Z</time>
      </trkpt>
      <trkpt lat="44.22154" lon="4.357">
        <ele>302.95</ele>
        <time>2017-03-18T08:55:50Z</time>
      </trkpt>
      <trkpt lat="44.22181" lon="4.35684">
        <ele>303.43</ele>
        <time>2017-03-18T08:56:00Z</time>
      </trkpt>
      <trkpt lat="44.22196" lon="4.3562">
        <ele>304.39</ele>
        <time>2017-03-18T08:56:16Z</time>
      </trkpt>
      <trkpt lat="44.22197" lon="4.35567">
        <ele>305.36</ele>
        <time>2017-03-18T08:56:29Z</time>
      </trkpt>
      <trkpt lat="44.22201" lon="4.35507">
        <ele>303.43</ele>
        <time>2017-03-18T08:56:43Z</time>
      </trkpt>
      <trkpt lat="44.22179" lon="4.35473">
        <ele>303.91</ele>
        <time>2017-03-18T08:56:53Z</time>
      </trkpt>
      <trkpt lat="44.22174" lon="4.35467">
        <ele>303.91</ele>
        <time>2017-03-18T08:56:55Z</time>
      </trkpt>
      <trkpt lat="44.22171" lon="4.35462">
        <ele>303.91</ele>
        <time>2017-03-18T08:56:56Z</time>
      </trkpt>
      <trkpt lat="44.22153" lon="4.35425">
        <ele>304.88</ele>
        <time>2017-03-18T08:57:06Z</time>
      </trkpt>
      <trkpt lat="44.22154" lon="4.35408">
        <ele>304.88</ele>
        <time>2017-03-18T08:57:10Z</time>
      </trkpt>
      <trkpt lat="44.22153" lon="4.35404">
        <ele>304.88</ele>
        <time>2017-03-18T08:57:11Z</time>
      </trkpt>
      <trkpt lat="44.22151" lon="4.354">
        <ele>304.88</ele>
        <time>2017-03-18T08:57:12Z</time>
      </trkpt>
      <trkpt lat="44.2215" lon="4.35396">
        <ele>305.36</ele>
        <time>2017-03-18T08:57:13Z</time>
      </trkpt>
      <trkpt lat="44.22149" lon="4.35391">
        <ele>305.36</ele>
        <time>2017-03-18T08:57:14Z</time>
      </trkpt>
      <trkpt lat="44.2215" lon="4.35388">
        <ele>305.36</ele>
        <time>2017-03-18T08:57:15Z</time>
      </trkpt>
      <trkpt lat="44.2215" lon="4.35384">
        <ele>304.88</ele>
        <time>2017-03-18T08:57:16Z</time>
      </trkpt>
      <trkpt lat="44.22151" lon="4.35382">
        <ele>304.88</ele>
        <time>2017-03-18T08:57:17Z</time>
      </trkpt>
      <trkpt lat="44.22152" lon="4.35377">
        <ele>305.36</ele>
        <time>2017-03-18T08:57:19Z</time>
      </trkpt>
      <trkpt lat="44.22152" lon="4.35375">
        <ele>305.36</ele>
        <time>2017-03-18T08:57:20Z</time>
      </trkpt>
      <trkpt lat="44.22149" lon="4.35371">
        <ele>305.36</ele>
        <time>2017-03-18T08:57:31Z</time>
      </trkpt>
      <trkpt lat="44.22149" lon="4.3537">
        <ele>305.36</ele>
        <time>2017-03-18T08:57:55Z</time>
      </trkpt>
    </trkseg>
  </trk>
</gpx>